Time;durP1;ratioP1;P1;durP2;ratioP2;P2;SDS_P1;SDS_P2;PMS_P1;PMS_P2;Temp;Humidity;BMP_temperature;BMP_pressure;BME280_temperature;BME280_humidity;BME280_pressure;Samples;Min_cycle;Max_cycle;Signal;HPM_P1;HPM_P2
2022/03/02 00:01:01;;;;;;;71.77;26.03;;;5.90;49.70;;;;;;5094384;28;20197;-46
2022/03/02 00:03:29;;;;;;;65.20;24.30;;;5.90;49.70;;;;;;5085752;28;20193;-47
2022/03/02 00:05:56;;;;;;;58.23;21.80;;;5.90;49.60;;;;;;5084853;28;20287;-46
2022/03/02 00:08:23;;;;;;;57.13;21.30;;;5.90;49.60;;;;;;5084899;28;20283;-46
2022/03/02 00:10:50;;;;;;;68.97;24.67;;;5.90;49.70;;;;;;5083889;28;20198;-50
2022/03/02 00:13:19;;;;;;;77.10;26.40;;;5.90;49.60;;;;;;5085266;28;20275;-48
2022/03/02 00:15:46;;;;;;;63.10;23.10;;;5.80;49.60;;;;;;5082974;28;20189;-47
2022/03/02 00:18:13;;;;;;;82.37;29.97;;;5.80;49.70;;;;;;5089608;28;20222;-43
2022/03/02 00:20:40;;;;;;;71.77;26.47;;;5.70;49.90;;;;;;5087643;28;20201;-44
2022/03/02 00:23:08;;;;;;;66.20;25.40;;;5.70;50.00;;;;;;5086671;28;20571;-46
2022/03/02 00:25:35;;;;;;;64.13;23.67;;;5.70;50.00;;;;;;5082138;28;20675;-44
2022/03/02 00:28:02;;;;;;;79.33;29.37;;;5.80;50.10;;;;;;5078463;28;20462;-44
2022/03/02 00:30:31;;;;;;;87.30;31.80;;;5.80;50.00;;;;;;5082386;28;20212;-43
2022/03/02 00:32:59;;;;;;;88.67;33.53;;;5.80;50.00;;;;;;5084207;28;20199;-47
2022/03/02 00:35:26;;;;;;;73.63;27.30;;;5.80;50.00;;;;;;5091473;28;20237;-48
2022/03/02 00:37:54;;;;;;;67.10;27.07;;;5.80;50.00;;;;;;5086376;28;20197;-46
2022/03/02 00:40:21;;;;;;;103.10;35.57;;;5.80;50.00;;;;;;5089175;28;20180;-49
2022/03/02 00:42:48;;;;;;;86.47;30.80;;;5.80;50.20;;;;;;5089019;28;20213;-53
2022/03/02 00:45:15;;;;;;;75.20;29.00;;;5.70;50.20;;;;;;5089744;28;20211;-52
2022/03/02 00:47:44;;;;;;;66.70;26.27;;;5.70;50.20;;;;;;5091209;28;20208;-49
2022/03/02 00:50:13;;;;;;;68.63;26.27;;;5.60;50.10;;;;;;5092892;28;20234;-52
2022/03/02 00:52:41;;;;;;;70.47;25.27;;;5.60;50.10;;;;;;5083140;28;20192;-50
2022/03/02 00:55:08;;;;;;;57.90;22.53;;;5.60;50.80;;;;;;5081826;28;20205;-49
2022/03/02 00:57:35;;;;;;;63.37;23.97;;;5.50;50.10;;;;;;5087363;28;20275;-52
2022/03/02 01:00:04;;;;;;;67.00;24.60;;;5.50;50.20;;;;;;5087240;28;20268;-53
2022/03/02 01:02:32;;;;;;;63.03;22.77;;;5.50;50.30;;;;;;5087969;28;20627;-44
2022/03/02 01:05:01;;;;;;;64.13;24.23;;;5.80;50.60;;;;;;5089845;28;20318;-52
2022/03/02 01:07:28;;;;;;;63.03;23.23;;;5.40;50.40;;;;;;5094099;28;20195;-47
2022/03/02 01:09:55;;;;;;;59.33;23.07;;;5.50;50.50;;;;;;5085335;28;20208;-52
2022/03/02 01:12:22;;;;;;;74.53;24.73;;;5.50;50.50;;;;;;5087504;28;20200;-53
2022/03/02 01:14:49;;;;;;;71.70;25.50;;;5.50;50.40;;;;;;5085445;28;20196;-52
2022/03/02 01:17:16;;;;;;;63.67;24.03;;;5.50;50.50;;;;;;5082761;28;20200;-46
2022/03/02 01:19:44;;;;;;;73.03;26.53;;;5.50;50.60;;;;;;5087616;28;20253;-53
2022/03/02 01:22:12;;;;;;;65.30;23.77;;;5.50;50.60;;;;;;5083750;28;20202;-54
2022/03/02 01:24:39;;;;;;;62.90;22.33;;;5.60;50.60;;;;;;5087541;28;20196;-51
2022/03/02 01:27:06;;;;;;;55.63;20.80;;;5.60;50.60;;;;;;5087366;28;20193;-44
2022/03/02 01:29:52;;;;;;;54.50;20.83;;;5.60;50.60;;;;;;5082864;28;20648;-46
2022/03/02 01:32:21;;;;;;;65.60;23.00;;;5.50;50.60;;;;;;5090799;28;20241;-46
2022/03/02 01:34:48;;;;;;;53.27;20.40;;;5.30;50.50;;;;;;5091963;28;20568;-46
2022/03/02 01:37:17;;;;;;;59.63;20.67;;;5.30;50.70;;;;;;5087147;28;20198;-45
2022/03/02 01:39:45;;;;;;;61.40;21.93;;;5.20;50.90;;;;;;5088769;28;20188;-44
2022/03/02 01:42:12;;;;;;;56.33;21.43;;;5.10;50.90;;;;;;5085610;28;20219;-45
2022/03/02 01:44:39;;;;;;;58.13;20.70;;;5.10;51.00;;;;;;5087966;28;20671;-47
2022/03/02 01:47:07;;;;;;;49.77;18.70;;;5.10;51.10;;;;;;5083724;28;20526;-48
2022/03/02 01:49:35;;;;;;;52.33;19.03;;;5.00;51.20;;;;;;5090756;28;20543;-47
2022/03/02 01:52:03;;;;;;;44.03;16.70;;;5.00;51.30;;;;;;5090752;28;20371;-48
2022/03/02 01:54:31;;;;;;;44.77;17.37;;;5.00;51.40;;;;;;5090229;28;20526;-50
2022/03/02 01:56:59;;;;;;;66.90;22.97;;;5.00;51.40;;;;;;5088837;28;20626;-47
2022/03/02 01:59:26;;;;;;;52.37;19.50;;;4.90;51.50;;;;;;5089680;28;20537;-51
2022/03/02 02:01:53;;;;;;;50.00;19.47;;;4.90;51.60;;;;;;5087427;28;20265;-46
2022/03/02 02:04:20;;;;;;;52.93;19.67;;;4.90;51.60;;;;;;5088015;28;20251;-52
2022/03/02 02:06:47;;;;;;;62.37;22.60;;;4.90;51.60;;;;;;5087116;28;20196;-46
2022/03/02 02:09:15;;;;;;;60.13;21.50;;;4.90;51.60;;;;;;5085888;28;20208;-46
2022/03/02 02:11:43;;;;;;;52.83;20.30;;;5.00;51.80;;;;;;5087157;28;20204;-52
2022/03/02 02:14:10;;;;;;;55.93;19.93;;;5.00;51.70;;;;;;5089231;28;20219;-51
2022/03/02 02:16:37;;;;;;;54.50;21.60;;;5.10;51.70;;;;;;5085746;28;20204;-46
2022/03/02 02:19:05;;;;;;;54.53;20.33;;;5.10;51.80;;;;;;5087805;28;20287;-44
2022/03/02 02:21:33;;;;;;;50.13;19.60;;;5.10;51.80;;;;;;5085210;28;20872;-45
2022/03/02 02:24:01;;;;;;;58.43;20.33;;;5.10;51.70;;;;;;5089271;28;20275;-50
2022/03/02 02:26:28;;;;;;;45.87;17.90;;;5.10;51.70;;;;;;5089259;28;20204;-52
2022/03/02 02:28:56;;;;;;;45.43;17.70;;;5.00;51.70;;;;;;5085703;28;20195;-49
2022/03/02 02:31:24;;;;;;;48.13;18.37;;;5.00;51.80;;;;;;5088248;28;20204;-54
2022/03/02 02:33:52;;;;;;;50.50;18.97;;;5.00;51.90;;;;;;5092149;28;20564;-51
2022/03/02 02:36:19;;;;;;;52.70;19.13;;;4.90;51.80;;;;;;5088487;28;20646;-50
2022/03/02 02:38:48;;;;;;;48.27;19.23;;;5.00;51.90;;;;;;5084819;28;20196;-48
2022/03/02 02:41:16;;;;;;;48.13;17.43;;;5.00;52.00;;;;;;5088264;28;20639;-53
2022/03/02 02:43:43;;;;;;;43.53;16.57;;;4.90;51.90;;;;;;5084789;28;20236;-50
2022/03/02 02:46:11;;;;;;;46.73;17.93;;;4.90;52.00;;;;;;5088442;28;20200;-53
2022/03/02 02:48:38;;;;;;;46.97;17.77;;;4.80;52.00;;;;;;5090937;28;20208;-51
2022/03/02 02:51:06;;;;;;;49.13;19.93;;;4.80;52.20;;;;;;5086199;28;20217;-51
2022/03/02 02:53:34;;;;;;;64.87;21.43;;;4.80;52.30;;;;;;5080069;28;20215;-54
2022/03/02 02:56:03;;;;;;;50.87;19.30;;;4.80;52.30;;;;;;5082662;28;20564;-48
2022/03/02 02:58:30;;;;;;;46.27;19.13;;;4.70;52.40;;;;;;5085671;28;20269;-54
2022/03/02 03:00:57;;;;;;;52.10;19.33;;;4.70;52.50;;;;;;5080027;28;20243;-53
2022/03/02 03:03:24;;;;;;;54.07;18.40;;;4.70;52.60;;;;;;5085203;28;20196;-53
2022/03/02 03:05:52;;;;;;;44.33;16.63;;;4.70;52.70;;;;;;5078542;28;20229;-52
2022/03/02 03:08:19;;;;;;;59.87;20.97;;;4.60;52.60;;;;;;5081664;28;20642;-50
2022/03/02 03:10:47;;;;;;;48.97;19.07;;;4.60;52.80;;;;;;5077299;28;20220;-49
2022/03/02 03:13:16;;;;;;;46.07;18.53;;;4.60;52.90;;;;;;5081260;28;20583;-48
2022/03/02 03:15:44;;;;;;;57.10;20.30;;;4.60;53.00;;;;;;5092366;28;20556;-47
2022/03/02 03:18:12;;;;;;;52.57;19.33;;;4.70;53.00;;;;;;5090167;28;20196;-54
2022/03/02 03:20:39;;;;;;;53.90;18.47;;;4.80;52.90;;;;;;5081801;28;20253;-53
2022/03/02 03:23:08;;;;;;;44.97;17.27;;;4.80;52.90;;;;;;5088024;28;20560;-45
2022/03/02 03:25:35;;;;;;;51.43;19.03;;;4.80;52.90;;;;;;5091227;28;20193;-47
2022/03/02 03:28:02;;;;;;;45.47;17.73;;;4.70;52.80;;;;;;5080061;28;20203;-47
2022/03/02 03:30:31;;;;;;;55.10;19.07;;;4.70;52.90;;;;;;5091427;28;20212;-51
2022/03/02 03:32:58;;;;;;;46.13;17.60;;;4.70;53.00;;;;;;5088244;28;20640;-52
2022/03/02 03:35:28;;;;;;;50.00;17.67;;;4.70;53.10;;;;;;5084614;28;20566;-52
2022/03/02 03:37:56;;;;;;;46.47;17.87;;;4.70;53.10;;;;;;5083106;28;20207;-50
2022/03/02 03:40:24;;;;;;;46.93;16.43;;;4.80;53.10;;;;;;5090881;28;20279;-51
2022/03/02 03:42:52;;;;;;;47.57;17.47;;;4.80;52.90;;;;;;5091119;28;20196;-46
2022/03/02 03:45:19;;;;;;;67.37;22.77;;;4.90;52.90;;;;;;5091442;28;20230;-48
2022/03/02 03:47:48;;;;;;;58.73;20.80;;;4.80;52.90;;;;;;5093658;28;20196;-46
2022/03/02 03:50:16;;;;;;;53.13;20.03;;;4.80;52.90;;;;;;5091580;28;20207;-46
2022/03/02 03:52:43;;;;;;;55.97;19.40;;;4.80;52.90;;;;;;5089817;28;20281;-49
2022/03/02 03:55:13;;;;;;;58.57;19.33;;;4.80;52.90;;;;;;5085692;28;20222;-46
2022/03/02 03:57:41;;;;;;;60.77;22.13;;;4.80;52.90;;;;;;5086179;28;20196;-46
2022/03/02 04:00:12;;;;;;;56.10;19.93;;;4.80;52.90;;;;;;5081992;28;20375;-49
2022/03/02 04:02:40;;;;;;;52.07;18.67;;;4.80;52.80;;;;;;5086103;28;20193;-46
2022/03/02 04:05:10;;;;;;;63.53;21.43;;;4.80;52.70;;;;;;5088560;28;20604;-46
2022/03/02 04:07:38;;;;;;;64.13;21.13;;;4.80;52.70;;;;;;5084192;28;20199;-48
2022/03/02 04:10:06;;;;;;;51.03;17.63;;;4.80;52.70;;;;;;5086282;28;20200;-48
2022/03/02 04:12:33;;;;;;;55.17;19.77;;;4.90;52.70;;;;;;5088860;28;20184;-50
2022/03/02 04:15:00;;;;;;;50.63;19.20;;;4.90;52.80;;;;;;5090760;28;20218;-49
2022/03/02 04:17:28;;;;;;;45.10;18.00;;;4.80;52.60;;;;;;5089907;28;20219;-49
2022/03/02 04:19:55;;;;;;;44.27;16.63;;;4.80;52.70;;;;;;5086666;28;20226;-47
2022/03/02 04:22:23;;;;;;;37.17;15.30;;;4.80;52.60;;;;;;5087947;28;20662;-51
2022/03/02 04:24:51;;;;;;;31.20;13.47;;;4.80;52.60;;;;;;5091336;28;20757;-53
2022/03/02 04:27:18;;;;;;;34.67;14.87;;;4.80;52.60;;;;;;5088259;28;20203;-53
2022/03/02 04:29:45;;;;;;;36.03;14.17;;;4.70;52.60;;;;;;5100664;28;20258;-54
2022/03/02 04:32:12;;;;;;;34.13;13.87;;;4.70;52.70;;;;;;5110176;27;20644;-53
2022/03/02 04:34:40;;;;;;;31.57;12.70;;;4.70;52.80;;;;;;5087586;28;20268;-53
2022/03/02 04:37:07;;;;;;;27.07;12.40;;;4.70;52.70;;;;;;5078474;28;20198;-54
2022/03/02 04:39:36;;;;;;;40.40;14.17;;;4.70;52.70;;;;;;5086812;28;20187;-54
2022/03/02 04:42:03;;;;;;;33.07;12.80;;;4.70;52.70;;;;;;5085928;28;20671;-53
2022/03/02 04:44:30;;;;;;;27.30;12.20;;;4.70;52.70;;;;;;5087739;28;20226;-54
2022/03/02 04:46:58;;;;;;;22.90;10.57;;;4.70;52.60;;;;;;5085852;28;20192;-53
2022/03/02 04:49:25;;;;;;;20.03;8.83;;;4.60;52.50;;;;;;5085881;28;20201;-54
2022/03/02 04:51:52;;;;;;;26.43;10.67;;;4.60;52.70;;;;;;5086816;28;20212;-54
2022/03/02 04:57:08;;;;;;;20.67;10.27;;;4.60;52.90;;;;;;5090350;28;20282;-51
2022/03/02 04:59:35;;;;;;;24.90;10.27;;;4.60;52.90;;;;;;5085852;28;20294;-56
2022/03/02 05:02:02;;;;;;;21.93;9.77;;;4.60;52.80;;;;;;5093967;28;20188;-53
2022/03/02 05:04:30;;;;;;;24.97;10.17;;;4.60;52.90;;;;;;5087346;28;20235;-50
2022/03/02 05:06:57;;;;;;;23.87;10.33;;;4.60;52.90;;;;;;5083935;28;20606;-54
2022/03/02 05:09:24;;;;;;;24.73;10.20;;;4.50;52.90;;;;;;5084641;28;20204;-53
2022/03/02 05:11:52;;;;;;;29.37;12.80;;;4.50;53.10;;;;;;5088688;28;20513;-52
2022/03/02 05:14:20;;;;;;;32.10;11.27;;;4.50;53.10;;;;;;5100435;28;20212;-49
2022/03/02 05:16:47;;;;;;;23.03;9.90;;;4.60;53.30;;;;;;5083562;28;20622;-47
2022/03/02 05:19:14;;;;;;;24.67;10.93;;;4.50;53.10;;;;;;5085879;28;20616;-52
2022/03/02 05:21:41;;;;;;;32.87;12.33;;;4.50;53.10;;;;;;5093065;28;20258;-48
2022/03/02 05:24:09;;;;;;;23.67;10.07;;;4.50;53.20;;;;;;5083000;28;20575;-50
2022/03/02 05:26:36;;;;;;;24.37;10.53;;;4.60;53.30;;;;;;5087531;28;20246;-48
2022/03/02 05:29:03;;;;;;;25.70;11.47;;;4.60;53.20;;;;;;5088301;28;20203;-47
2022/03/02 05:31:32;;;;;;;32.77;13.03;;;4.60;53.20;;;;;;5090756;28;20226;-48
2022/03/02 05:33:59;;;;;;;26.10;11.17;;;4.60;53.30;;;;;;5089645;28;20367;-50
2022/03/02 05:36:27;;;;;;;27.03;11.43;;;4.60;53.40;;;;;;5091991;28;20196;-46
2022/03/02 05:38:55;;;;;;;24.27;11.13;;;4.50;53.40;;;;;;5088010;28;20618;-51
2022/03/02 05:41:22;;;;;;;25.43;10.93;;;4.60;53.50;;;;;;5085138;28;20671;-51
2022/03/02 05:43:49;;;;;;;27.77;11.23;;;4.60;53.50;;;;;;5094512;28;20210;-48
2022/03/02 05:46:17;;;;;;;31.17;11.50;;;4.60;53.40;;;;;;5089184;28;20628;-49
2022/03/02 05:48:45;;;;;;;36.30;13.70;;;4.50;53.40;;;;;;5090533;28;20764;-48
2022/03/02 05:51:12;;;;;;;41.80;14.90;;;4.50;53.50;;;;;;5087703;28;20212;-49
2022/03/02 05:53:40;;;;;;;45.13;16.30;;;4.50;53.50;;;;;;5086480;28;20277;-47
2022/03/02 05:56:07;;;;;;;37.80;14.47;;;4.50;53.60;;;;;;5089271;28;20676;-51
2022/03/02 05:58:34;;;;;;;35.13;13.87;;;4.50;53.50;;;;;;5088296;28;20221;-46
2022/03/02 06:01:01;;;;;;;44.30;14.83;;;4.50;53.60;;;;;;5090868;28;20246;-47
2022/03/02 06:03:29;;;;;;;43.00;15.90;;;4.40;54.20;;;;;;5092329;28;20196;-48
2022/03/02 06:05:57;;;;;;;42.40;14.73;;;4.50;53.70;;;;;;5090822;28;20752;-49
2022/03/02 06:08:25;;;;;;;46.17;17.17;;;4.50;53.50;;;;;;5089416;28;20200;-46
2022/03/02 06:10:53;;;;;;;38.73;14.97;;;4.60;53.60;;;;;;5093297;28;20215;-46
2022/03/02 06:13:21;;;;;;;39.83;14.47;;;4.60;53.50;;;;;;5091484;28;20204;-50
2022/03/02 06:15:48;;;;;;;36.37;14.37;;;4.70;53.50;;;;;;5092475;28;20218;-48
2022/03/02 06:18:16;;;;;;;41.87;14.87;;;4.70;53.40;;;;;;5081491;28;20193;-52
2022/03/02 06:20:43;;;;;;;68.87;21.50;;;4.60;53.40;;;;;;5077203;28;20197;-47
2022/03/02 06:23:12;;;;;;;62.67;20.33;;;4.60;53.50;;;;;;5077445;28;20196;-46
2022/03/02 06:25:40;;;;;;;55.50;18.97;;;4.70;53.60;;;;;;5076908;28;20201;-45
2022/03/02 06:28:07;;;;;;;74.43;23.83;;;4.70;53.50;;;;;;5078098;28;20203;-51
2022/03/02 06:30:34;;;;;;;84.70;27.30;;;4.80;53.50;;;;;;5077725;28;21091;-48
2022/03/02 06:33:01;;;;;;;90.70;27.47;;;4.90;53.50;;;;;;5080537;28;20196;-51
2022/03/02 06:35:29;;;;;;;71.10;24.67;;;4.90;53.50;;;;;;5087234;28;20208;-44
2022/03/02 06:37:56;;;;;;;59.43;21.40;;;4.90;53.50;;;;;;5087936;28;20200;-46
2022/03/02 06:40:25;;;;;;;89.43;27.23;;;4.90;53.40;;;;;;5089607;28;20203;-48
2022/03/02 06:43:06;;;;;;;103.40;31.60;;;4.90;53.50;;;;;;5087618;28;20204;-49
2022/03/02 06:45:48;;;;;;;118.23;35.13;;;5.00;53.70;;;;;;5084968;28;20189;-46
2022/03/02 06:48:20;;;;;;;94.67;31.63;;;5.00;53.80;;;;;;5088854;28;20533;-49
2022/03/02 06:50:51;;;;;;;98.30;33.87;;;4.90;53.70;;;;;;5087391;28;20205;-47
2022/03/02 06:53:23;;;;;;;91.50;31.07;;;5.00;54.00;;;;;;5084306;28;20702;-49
2022/03/02 06:55:52;;;;;;;83.00;28.33;;;5.00;54.00;;;;;;5083013;28;20385;-51
2022/03/02 06:58:22;;;;;;;88.20;29.70;;;5.00;54.10;;;;;;5091585;28;20211;-52
2022/03/02 07:00:53;;;;;;;82.00;29.83;;;5.00;54.10;;;;;;5099715;28;20188;-48
2022/03/02 07:03:26;;;;;;;71.03;26.23;;;5.00;54.20;;;;;;5088796;28;20683;-46
2022/03/02 07:05:55;;;;;;;77.17;24.87;;;5.00;54.20;;;;;;5096021;28;20603;-46
2022/03/02 07:08:23;;;;;;;78.37;26.13;;;4.90;54.20;;;;;;5088008;28;20209;-47
2022/03/02 07:10:53;;;;;;;74.67;28.40;;;5.00;54.30;;;;;;5091803;28;20208;-46
2022/03/02 07:13:22;;;;;;;77.93;26.53;;;4.90;54.30;;;;;;5087565;28;20579;-47
2022/03/02 07:15:51;;;;;;;56.37;21.60;;;4.90;54.30;;;;;;5092704;28;20204;-54
2022/03/02 07:18:19;;;;;;;53.67;20.03;;;5.00;54.50;;;;;;5089960;28;20701;-51
2022/03/02 07:20:48;;;;;;;59.70;23.07;;;5.00;54.40;;;;;;5090892;28;20226;-49
2022/03/02 07:23:18;;;;;;;58.33;21.67;;;5.10;54.40;;;;;;5089606;28;20476;-50
2022/03/02 07:25:46;;;;;;;49.23;19.13;;;5.10;54.40;;;;;;5091800;28;20571;-46
2022/03/02 07:28:16;;;;;;;48.80;18.33;;;5.20;54.40;;;;;;5088755;28;20655;-51
2022/03/02 07:30:45;;;;;;;48.43;17.43;;;5.20;54.30;;;;;;5093046;28;20732;-48
2022/03/02 07:33:15;;;;;;;47.43;18.93;;;5.30;54.40;;;;;;5088938;28;20192;-46
2022/03/02 07:35:48;;;;;;;54.00;19.57;;;5.30;54.60;;;;;;5082460;28;20208;-45
2022/03/02 07:38:15;;;;;;;50.17;19.40;;;5.40;54.70;;;;;;5088043;28;20520;-48
2022/03/02 07:40:45;;;;;;;37.93;16.47;;;5.50;54.80;;;;;;5086877;28;20620;-45
2022/03/02 07:43:14;;;;;;;41.20;17.87;;;5.60;54.80;;;;;;5084349;28;20553;-47
2022/03/02 07:45:41;;;;;;;40.43;16.87;;;5.70;54.90;;;;;;5074367;28;20188;-46
2022/03/02 07:48:10;;;;;;;36.97;16.07;;;5.80;54.90;;;;;;5090468;28;20192;-44
2022/03/02 07:50:38;;;;;;;47.90;19.13;;;5.90;54.90;;;;;;5094267;28;20192;-52
2022/03/02 07:53:07;;;;;;;47.97;19.13;;;6.10;55.00;;;;;;5080853;28;20625;-48
2022/03/02 07:55:36;;;;;;;38.10;16.33;;;6.30;55.20;;;;;;5077264;28;20204;-49
2022/03/02 07:58:04;;;;;;;36.83;16.57;;;6.60;55.10;;;;;;5083247;28;20192;-49
2022/03/02 08:00:33;;;;;;;36.10;16.80;;;7.20;54.70;;;;;;5095989;28;20271;-47
2022/03/02 08:03:02;;;;;;;41.27;15.30;;;7.90;54.00;;;;;;5088361;28;20196;-50
2022/03/02 08:05:30;;;;;;;33.93;15.30;;;8.60;53.30;;;;;;5088856;28;20239;-48
2022/03/02 08:07:59;;;;;;;28.43;13.90;;;9.20;52.40;;;;;;5087622;28;20197;-50
2022/03/02 08:10:26;;;;;;;31.87;13.83;;;9.80;51.80;;;;;;5088360;28;20199;-49
2022/03/02 08:12:54;;;;;;;42.30;16.93;;;10.30;50.30;;;;;;5088324;28;20664;-52
2022/03/02 08:15:24;;;;;;;43.07;17.17;;;10.80;49.40;;;;;;5089842;28;20228;-50
2022/03/02 08:17:52;;;;;;;47.50;18.97;;;11.20;48.70;;;;;;5089020;28;20552;-52
2022/03/02 08:20:19;;;;;;;36.33;17.33;;;11.60;48.00;;;;;;5090001;28;20719;-48
2022/03/02 08:22:51;;;;;;;36.13;17.70;;;11.90;47.90;;;;;;5087212;28;20189;-47
2022/03/02 08:25:23;;;;;;;40.10;19.17;;;12.30;47.40;;;;;;5088386;28;20197;-53
2022/03/02 08:27:52;;;;;;;38.47;17.43;;;12.80;46.80;;;;;;5086543;28;20624;-53
2022/03/02 08:30:19;;;;;;;48.27;20.57;;;13.10;46.10;;;;;;5088467;28;20738;-53
2022/03/02 08:32:48;;;;;;;49.53;20.73;;;13.40;45.60;;;;;;5088317;28;20542;-53
2022/03/02 08:35:17;;;;;;;49.40;20.20;;;13.40;45.10;;;;;;5088234;28;20201;-52
2022/03/02 08:37:44;;;;;;;42.67;18.93;;;13.50;45.00;;;;;;5086686;28;20200;-51
2022/03/02 08:40:13;;;;;;;37.27;16.37;;;13.50;45.00;;;;;;5094504;28;20201;-51
2022/03/02 08:42:41;;;;;;;40.60;19.33;;;13.60;45.00;;;;;;5087618;28;20196;-51
2022/03/02 08:45:09;;;;;;;37.07;17.60;;;13.70;44.60;;;;;;5085258;28;20203;-52
2022/03/02 08:47:36;;;;;;;37.37;16.93;;;13.70;44.80;;;;;;5093954;28;20210;-50
2022/03/02 08:50:04;;;;;;;41.97;18.83;;;13.70;44.80;;;;;;5081945;28;20295;-51
2022/03/02 08:52:34;;;;;;;38.50;17.60;;;13.70;44.70;;;;;;5084274;28;20216;-54
2022/03/02 08:55:05;;;;;;;39.80;17.70;;;13.70;44.90;;;;;;5087175;28;20193;-50
2022/03/02 08:57:33;;;;;;;39.57;17.43;;;13.80;44.70;;;;;;5085078;28;20675;-53
2022/03/02 09:00:00;;;;;;;36.43;17.23;;;13.90;44.50;;;;;;5097796;28;20225;-51
2022/03/02 09:02:29;;;;;;;43.97;15.57;;;13.90;44.50;;;;;;5087173;28;20189;-53
2022/03/02 09:05:01;;;;;;;53.23;19.47;;;14.00;44.70;;;;;;5086753;28;20337;-52
2022/03/02 09:07:31;;;;;;;47.07;21.10;;;13.90;44.60;;;;;;5085991;28;20250;-50
2022/03/02 09:10:00;;;;;;;45.90;21.03;;;13.70;44.40;;;;;;5088589;28;20191;-53
2022/03/02 09:12:27;;;;;;;61.20;24.90;;;13.40;44.40;;;;;;5083820;28;20216;-53
2022/03/02 09:14:56;;;;;;;55.67;24.00;;;13.20;44.50;;;;;;5089440;28;20269;-52
2022/03/02 09:17:24;;;;;;;47.07;20.77;;;13.00;44.70;;;;;;5092258;28;20195;-53
2022/03/02 09:19:51;;;;;;;49.40;20.63;;;12.90;44.90;;;;;;5086351;28;20196;-50
2022/03/02 09:22:19;;;;;;;50.30;21.30;;;13.00;45.00;;;;;;5085444;28;20283;-50
2022/03/02 09:24:48;;;;;;;40.60;19.10;;;12.90;44.80;;;;;;5086243;28;20677;-51
2022/03/02 09:27:17;;;;;;;35.90;16.00;;;12.80;44.70;;;;;;5087460;28;20305;-51
2022/03/02 09:29:47;;;;;;;37.03;15.30;;;12.90;44.80;;;;;;5085063;28;20200;-53
2022/03/02 09:32:16;;;;;;;28.63;13.53;;;13.00;44.60;;;;;;5087202;28;20575;-53
2022/03/02 09:34:48;;;;;;;35.03;15.83;;;13.10;44.40;;;;;;5085884;28;20205;-50
2022/03/02 09:37:16;;;;;;;36.03;15.30;;;13.20;44.10;;;;;;5086089;28;20725;-50
2022/03/02 09:39:44;;;;;;;28.70;12.63;;;13.20;43.60;;;;;;5097480;28;20277;-48
2022/03/02 09:42:15;;;;;;;26.63;12.30;;;13.20;43.50;;;;;;5097625;28;20194;-47
2022/03/02 09:44:46;;;;;;;28.10;12.73;;;13.40;43.50;;;;;;5084811;28;20200;-51
2022/03/02 09:47:17;;;;;;;26.13;12.67;;;13.70;43.00;;;;;;5083916;28;20204;-53
2022/03/02 09:49:50;;;;;;;24.73;11.43;;;13.80;41.80;;;;;;5089378;28;20249;-54
2022/03/02 09:52:20;;;;;;;18.43;9.10;;;13.90;40.40;;;;;;5078030;28;20213;-54
2022/03/02 09:54:52;;;;;;;16.60;8.67;;;14.00;40.30;;;;;;5081753;28;20232;-53
2022/03/02 09:57:21;;;;;;;15.70;8.47;;;14.30;40.30;;;;;;5078094;28;20198;-48
2022/03/02 09:59:51;;;;;;;16.53;7.20;;;15.00;40.90;;;;;;5085662;28;21128;-47
2022/03/02 10:02:30;;;;;;;10.33;6.13;;;15.90;39.40;;;;;;5084766;28;20202;-48
2022/03/02 10:05:04;;;;;;;8.20;5.67;;;16.30;38.40;;;;;;5084514;28;20238;-51
2022/03/02 10:07:35;;;;;;;10.57;5.60;;;16.60;38.00;;;;;;5087108;28;20790;-52
2022/03/02 10:10:06;;;;;;;10.80;5.50;;;17.00;37.40;;;;;;5087582;28;20600;-52
2022/03/02 10:12:36;;;;;;;7.43;5.00;;;17.30;35.90;;;;;;5094096;28;20229;-50
2022/03/02 10:15:06;;;;;;;8.63;4.93;;;17.60;35.50;;;;;;5079561;28;20186;-47
2022/03/02 10:17:35;;;;;;;6.93;4.43;;;18.00;34.90;;;;;;5098100;27;20282;-44
2022/03/02 10:20:07;;;;;;;6.87;4.63;;;18.60;34.70;;;;;;5092436;28;20279;-45
2022/03/02 10:22:57;;;;;;;8.30;4.97;;;19.80;34.40;;;;;;5091483;28;20189;-45
2022/03/02 10:25:44;;;;;;;8.80;5.47;;;21.10;33.50;;;;;;5089293;28;20208;-46
2022/03/02 10:28:18;;;;;;;7.33;5.20;;;22.50;32.20;;;;;;5091579;28;20194;-52
2022/03/02 10:30:59;;;;;;;9.43;5.28;;;23.60;30.80;;;;;;5091584;28;20582;-49
2022/03/02 10:33:27;;;;;;;6.55;4.45;;;24.40;30.70;;;;;;5089321;28;20213;-51
2022/03/02 10:36:03;;;;;;;10.48;6.05;;;25.30;30.00;;;;;;5086821;28;20200;-48
2022/03/02 10:38:45;;;;;;;10.13;7.07;;;26.10;28.70;;;;;;5089631;28;20192;-46
2022/03/02 10:41:12;;;;;;;14.10;7.63;;;26.60;27.50;;;;;;5092612;28;20219;-44
2022/03/02 10:43:52;;;;;;;12.13;7.00;;;27.00;26.80;;;;;;5087902;28;20192;-53
2022/03/02 10:46:23;;;;;;;11.98;6.60;;;27.40;27.00;;;;;;5089553;28;20288;-54
2022/03/02 10:49:02;;;;;;;10.05;6.68;;;28.00;27.00;;;;;;5089799;28;20622;-54
2022/03/02 10:51:31;;;;;;;9.15;5.90;;;28.40;26.00;;;;;;5087208;28;20197;-52
2022/03/02 10:54:01;;;;;;;9.20;5.53;;;28.60;25.70;;;;;;5086127;28;20189;-52
2022/03/02 10:56:30;;;;;;;8.50;5.72;;;28.90;25.30;;;;;;5084435;28;20564;-54
2022/03/02 10:59:03;;;;;;;6.15;5.28;;;29.20;24.90;;;;;;5089222;28;20196;-51
2022/03/02 11:01:30;;;;;;;8.65;5.22;;;29.40;24.40;;;;;;5090574;28;20212;-51
2022/03/02 11:03:57;;;;;;;9.05;6.15;;;29.00;24.20;;;;;;5084770;28;20598;-51
2022/03/02 11:06:27;;;;;;;8.73;6.30;;;28.30;23.50;;;;;;5091344;28;20188;-52
2022/03/02 11:08:55;;;;;;;8.63;6.20;;;27.40;23.50;;;;;;5086782;28;20721;-57
2022/03/02 11:11:26;;;;;;;9.38;6.22;;;26.20;23.90;;;;;;5090994;28;20288;-54
2022/03/02 11:13:56;;;;;;;9.85;5.93;;;25.30;24.10;;;;;;5086385;28;20240;-53
2022/03/02 11:16:26;;;;;;;6.43;5.15;;;24.30;24.40;;;;;;5090234;28;20189;-53
2022/03/02 11:18:53;;;;;;;13.52;7.22;;;23.50;24.80;;;;;;5087614;28;20254;-52
2022/03/02 11:21:24;;;;;;;9.23;6.20;;;22.70;24.30;;;;;;5087771;28;20205;-50
2022/03/02 11:23:54;;;;;;;9.30;6.25;;;22.00;24.40;;;;;;5081435;28;20281;-53
2022/03/02 11:26:24;;;;;;;8.75;5.75;;;21.50;24.60;;;;;;5082201;28;20576;-50
2022/03/02 11:28:53;;;;;;;10.02;6.00;;;21.10;24.70;;;;;;5084519;28;20207;-51
2022/03/02 11:31:23;;;;;;;10.30;6.28;;;21.00;24.90;;;;;;5085457;28;20291;-46
2022/03/02 11:34:08;;;;;;;10.20;5.93;;;21.00;24.90;;;;;;5087588;28;20209;-48
2022/03/02 11:36:37;;;;;;;6.95;4.82;;;20.90;24.70;;;;;;5083334;28;20211;-50
2022/03/02 11:39:07;;;;;;;9.18;5.10;;;20.60;24.70;;;;;;5086433;28;20211;-47
2022/03/02 11:41:36;;;;;;;6.03;4.60;;;20.20;24.30;;;;;;5086401;28;20271;-48
2022/03/02 11:44:05;;;;;;;6.85;4.55;;;19.70;24.20;;;;;;5088249;28;20197;-52
2022/03/02 11:46:33;;;;;;;7.22;5.07;;;19.40;24.40;;;;;;5088448;28;20227;-54
2022/03/02 11:49:04;;;;;;;9.85;5.53;;;19.20;24.50;;;;;;5085905;28;20201;-52
2022/03/02 11:51:32;;;;;;;8.60;5.65;;;19.10;24.40;;;;;;5101613;28;20567;-50
2022/03/02 11:54:00;;;;;;;8.32;5.40;;;18.80;24.40;;;;;;5089643;28;20227;-53
2022/03/02 11:56:30;;;;;;;11.13;6.10;;;18.60;25.10;;;;;;5092829;28;20286;-54
2022/03/02 11:59:05;;;;;;;7.70;5.50;;;18.40;24.60;;;;;;5089383;28;20198;-51
2022/03/02 12:01:43;;;;;;;9.18;5.10;;;18.40;25.30;;;;;;5090023;28;20196;-52
2022/03/02 12:04:14;;;;;;;8.90;5.10;;;18.30;24.80;;;;;;5086229;28;20239;-51
2022/03/02 12:06:45;;;;;;;8.45;4.80;;;18.20;24.80;;;;;;5083936;28;20516;-50
2022/03/02 12:09:25;;;;;;;12.07;6.18;;;18.00;25.10;;;;;;5083082;28;20191;-48
2022/03/02 12:11:52;;;;;;;11.30;6.63;;;17.90;25.40;;;;;;5101041;27;20222;-50
2022/03/02 12:14:19;;;;;;;8.15;5.35;;;17.70;25.90;;;;;;5089918;28;20273;-50
2022/03/02 12:16:50;;;;;;;10.93;6.60;;;17.50;26.20;;;;;;5100977;28;20220;-53
2022/03/02 12:19:24;;;;;;;11.10;6.18;;;17.70;26.50;;;;;;5084345;28;20664;-50
2022/03/02 12:21:54;;;;;;;9.65;5.78;;;17.80;26.70;;;;;;5089283;28;20199;-50
2022/03/02 12:24:29;;;;;;;8.10;5.57;;;17.80;26.80;;;;;;5120943;27;20208;-53
2022/03/02 12:27:05;;;;;;;14.60;6.47;;;17.80;26.90;;;;;;5098411;28;20254;-51
2022/03/02 12:29:32;;;;;;;12.43;7.13;;;17.80;27.00;;;;;;5089681;28;20196;-48
2022/03/02 12:32:08;;;;;;;14.97;7.60;;;17.70;27.10;;;;;;5088577;28;20202;-49
2022/03/02 12:34:39;;;;;;;13.30;7.33;;;17.40;27.10;;;;;;5086507;28;20229;-52
2022/03/02 12:37:07;;;;;;;11.07;6.43;;;17.30;27.40;;;;;;5088748;28;20196;-51
2022/03/02 12:39:35;;;;;;;12.20;6.77;;;17.10;27.50;;;;;;5086968;28;20204;-49
2022/03/02 12:42:07;;;;;;;9.70;5.80;;;16.90;27.80;;;;;;5087138;28;20196;-49
2022/03/02 12:44:36;;;;;;;7.90;4.83;;;16.70;27.90;;;;;;5088204;28;20193;-46
2022/03/02 12:47:06;;;;;;;8.27;4.90;;;16.60;28.10;;;;;;5084689;28;20204;-50